sensor_id;sensor_type;location;lat;lon;timestamp;P1;durP1;ratioP1;P2;durP2;ratioP2
50225;SDS011;36113;50.742;6.432;2022-10-16T00:00:27;4.07;;;0.95;;
50225;SDS011;36113;50.742;6.432;2022-10-16T00:02:52;1.25;;;1.15;;
50225;SDS011;36113;50.742;6.432;2022-10-16T00:05:17;0.90;;;0.90;;
50225;SDS011;36113;50.742;6.432;2022-10-16T00:07:43;2.92;;;1.00;;
50225;SDS011;36113;50.742;6.432;2022-10-16T00:10:08;0.90;;;0.90;;
50225;SDS011;36113;50.742;6.432;2022-10-16T00:12:33;0.70;;;0.70;;
50225;SDS011;36113;50.742;6.432;2022-10-16T00:14:59;1.48;;;0.77;;
50225;SDS011;36113;50.742;6.432;2022-10-16T00:17:24;1.33;;;0.88;;
50225;SDS011;36113;50.742;6.432;2022-10-16T00:19:49;0.95;;;0.88;;
50225;SDS011;36113;50.742;6.432;2022-10-16T00:22:15;1.08;;;0.77;;
50225;SDS011;36113;50.742;6.432;2022-10-16T00:24:40;2.55;;;0.80;;
50225;SDS011;36113;50.742;6.432;2022-10-16T00:27:05;0.90;;;0.90;;
50225;SDS011;36113;50.742;6.432;2022-10-16T00:29:30;1.10;;;1.10;;
50225;SDS011;36113;50.742;6.432;2022-10-16T00:31:56;0.93;;;0.90;;
50225;SDS011;36113;50.742;6.432;2022-10-16T00:34:21;1.05;;;1.00;;
50225;SDS011;36113;50.742;6.432;2022-10-16T00:36:46;1.20;;;1.20;;
50225;SDS011;36113;50.742;6.432;2022-10-16T00:39:12;1.00;;;1.00;;
50225;SDS011;36113;50.742;6.432;2022-10-16T00:41:37;1.77;;;1.40;;
50225;SDS011;36113;50.742;6.432;2022-10-16T00:44:03;1.13;;;1.13;;
50225;SDS011;36113;50.742;6.432;2022-10-16T00:46:49;1.52;;;1.42;;
50225;SDS011;36113;50.742;6.432;2022-10-16T00:49:16;1.38;;;1.20;;
50225;SDS011;36113;50.742;6.432;2022-10-16T00:51:45;1.23;;;1.20;;
50225;SDS011;36113;50.742;6.432;2022-10-16T00:54:23;1.58;;;1.33;;
50225;SDS011;36113;50.742;6.432;2022-10-16T00:56:51;1.23;;;1.15;;
50225;SDS011;36113;50.742;6.432;2022-10-16T01:01:45;1.00;;;1.00;;
50225;SDS011;36113;50.742;6.432;2022-10-16T01:04:10;2.75;;;1.00;;
50225;SDS011;36113;50.742;6.432;2022-10-16T01:06:38;2.67;;;1.10;;
50225;SDS011;36113;50.742;6.432;2022-10-16T01:09:19;0.90;;;0.90;;
50225;SDS011;36113;50.742;6.432;2022-10-16T01:17:06;0.65;;;0.65;;
50225;SDS011;36113;50.742;6.432;2022-10-16T01:22:20;0.90;;;0.90;;
50225;SDS011;36113;50.742;6.432;2022-10-16T01:24:53;1.52;;;1.20;;
50225;SDS011;36113;50.742;6.432;2022-10-16T01:27:25;1.10;;;1.10;;
50225;SDS011;36113;50.742;6.432;2022-10-16T01:29:59;0.80;;;0.80;;
50225;SDS011;36113;50.742;6.432;2022-10-16T01:32:42;6.15;;;1.17;;
50225;SDS011;36113;50.742;6.432;2022-10-16T01:35:18;2.10;;;1.10;;
50225;SDS011;36113;50.742;6.432;2022-10-16T01:37:54;1.85;;;1.00;;
50225;SDS011;36113;50.742;6.432;2022-10-16T01:40:26;1.02;;;1.02;;
50225;SDS011;36113;50.742;6.432;2022-10-16T01:42:53;0.88;;;0.88;;
50225;SDS011;36113;50.742;6.432;2022-10-16T01:45:24;0.80;;;0.80;;
50225;SDS011;36113;50.742;6.432;2022-10-16T01:47:53;1.55;;;0.93;;
50225;SDS011;36113;50.742;6.432;2022-10-16T01:50:19;2.83;;;0.90;;
50225;SDS011;36113;50.742;6.432;2022-10-16T01:52:46;1.55;;;1.13;;
50225;SDS011;36113;50.742;6.432;2022-10-16T01:55:14;1.50;;;0.90;;
50225;SDS011;36113;50.742;6.432;2022-10-16T01:57:46;1.00;;;1.00;;
50225;SDS011;36113;50.742;6.432;2022-10-16T02:00:15;1.05;;;1.05;;
50225;SDS011;36113;50.742;6.432;2022-10-16T02:02:45;0.90;;;0.90;;
50225;SDS011;36113;50.742;6.432;2022-10-16T02:05:16;1.30;;;1.10;;
50225;SDS011;36113;50.742;6.432;2022-10-16T02:07:54;1.52;;;1.35;;
50225;SDS011;36113;50.742;6.432;2022-10-16T02:10:20;1.45;;;1.35;;
50225;SDS011;36113;50.742;6.432;2022-10-16T02:12:49;1.13;;;1.10;;
50225;SDS011;36113;50.742;6.432;2022-10-16T02:15:41;1.40;;;1.30;;
50225;SDS011;36113;50.742;6.432;2022-10-16T02:18:06;3.03;;;1.00;;
50225;SDS011;36113;50.742;6.432;2022-10-16T02:20:46;1.77;;;1.40;;
50225;SDS011;36113;50.742;6.432;2022-10-16T02:23:19;3.65;;;1.40;;
50225;SDS011;36113;50.742;6.432;2022-10-16T02:25:54;1.20;;;1.20;;
50225;SDS011;36113;50.742;6.432;2022-10-16T02:28:27;1.20;;;1.20;;
50225;SDS011;36113;50.742;6.432;2022-10-16T02:31:04;1.20;;;1.20;;
50225;SDS011;36113;50.742;6.432;2022-10-16T02:33:32;1.10;;;1.10;;
50225;SDS011;36113;50.742;6.432;2022-10-16T02:36:00;4.50;;;1.33;;
50225;SDS011;36113;50.742;6.432;2022-10-16T02:38:26;1.27;;;1.27;;
50225;SDS011;36113;50.742;6.432;2022-10-16T02:40:53;1.55;;;1.35;;
50225;SDS011;36113;50.742;6.432;2022-10-16T02:43:19;1.48;;;1.38;;
50225;SDS011;36113;50.742;6.432;2022-10-16T02:45:45;1.65;;;1.55;;
50225;SDS011;36113;50.742;6.432;2022-10-16T02:48:10;2.03;;;1.20;;
50225;SDS011;36113;50.742;6.432;2022-10-16T02:50:35;3.05;;;1.30;;
50225;SDS011;36113;50.742;6.432;2022-10-16T02:53:01;1.65;;;1.55;;
50225;SDS011;36113;50.742;6.432;2022-10-16T02:55:26;1.25;;;1.25;;
50225;SDS011;36113;50.742;6.432;2022-10-16T02:57:52;2.60;;;1.50;;
50225;SDS011;36113;50.742;6.432;2022-10-16T03:00:18;1.37;;;1.33;;
50225;SDS011;36113;50.742;6.432;2022-10-16T03:02:44;4.60;;;1.20;;
50225;SDS011;36113;50.742;6.432;2022-10-16T03:05:10;1.98;;;1.42;;
50225;SDS011;36113;50.742;6.432;2022-10-16T03:07:35;1.63;;;1.52;;
50225;SDS011;36113;50.742;6.432;2022-10-16T03:10:01;1.85;;;1.20;;
50225;SDS011;36113;50.742;6.432;2022-10-16T03:12:27;1.45;;;1.40;;
50225;SDS011;36113;50.742;6.432;2022-10-16T03:14:52;1.30;;;1.30;;
50225;SDS011;36113;50.742;6.432;2022-10-16T03:17:17;1.30;;;1.30;;
50225;SDS011;36113;50.742;6.432;2022-10-16T03:19:43;1.27;;;1.27;;
50225;SDS011;36113;50.742;6.432;2022-10-16T03:22:08;1.15;;;1.15;;
50225;SDS011;36113;50.742;6.432;2022-10-16T03:24:33;3.60;;;1.50;;
50225;SDS011;36113;50.742;6.432;2022-10-16T03:26:59;2.97;;;1.33;;
50225;SDS011;36113;50.742;6.432;2022-10-16T03:29:25;3.20;;;1.55;;
50225;SDS011;36113;50.742;6.432;2022-10-16T03:31:50;1.67;;;1.58;;
50225;SDS011;36113;50.742;6.432;2022-10-16T03:34:16;1.40;;;1.40;;
50225;SDS011;36113;50.742;6.432;2022-10-16T03:36:41;1.15;;;1.15;;
50225;SDS011;36113;50.742;6.432;2022-10-16T03:39:06;6.97;;;1.40;;
50225;SDS011;36113;50.742;6.432;2022-10-16T03:41:32;4.43;;;1.88;;
50225;SDS011;36113;50.742;6.432;2022-10-16T03:43:57;1.17;;;1.17;;
50225;SDS011;36113;50.742;6.432;2022-10-16T03:46:22;1.20;;;1.20;;
50225;SDS011;36113;50.742;6.432;2022-10-16T03:48:48;1.40;;;1.40;;
50225;SDS011;36113;50.742;6.432;2022-10-16T03:51:13;1.70;;;1.60;;
50225;SDS011;36113;50.742;6.432;2022-10-16T03:53:38;1.50;;;1.48;;
50225;SDS011;36113;50.742;6.432;2022-10-16T03:56:04;1.50;;;1.50;;
50225;SDS011;36113;50.742;6.432;2022-10-16T03:58:29;2.28;;;1.33;;
50225;SDS011;36113;50.742;6.432;2022-10-16T04:00:54;2.63;;;1.52;;
50225;SDS011;36113;50.742;6.432;2022-10-16T04:03:20;1.67;;;1.58;;
50225;SDS011;36113;50.742;6.432;2022-10-16T04:05:46;1.50;;;1.40;;
50225;SDS011;36113;50.742;6.432;2022-10-16T04:08:11;1.38;;;1.27;;
50225;SDS011;36113;50.742;6.432;2022-10-16T04:10:37;3.50;;;1.30;;
50225;SDS011;36113;50.742;6.432;2022-10-16T04:13:02;1.35;;;1.35;;
50225;SDS011;36113;50.742;6.432;2022-10-16T04:15:27;1.67;;;1.55;;
50225;SDS011;36113;50.742;6.432;2022-10-16T04:17:53;5.63;;;1.48;;
50225;SDS011;36113;50.742;6.432;2022-10-16T04:20:18;4.18;;;1.40;;
50225;SDS011;36113;50.742;6.432;2022-10-16T04:22:44;1.27;;;1.27;;
50225;SDS011;36113;50.742;6.432;2022-10-16T04:25:10;1.58;;;1.30;;
50225;SDS011;36113;50.742;6.432;2022-10-16T04:27:36;1.40;;;1.40;;
50225;SDS011;36113;50.742;6.432;2022-10-16T04:30:03;2.87;;;1.83;;
50225;SDS011;36113;50.742;6.432;2022-10-16T04:32:28;2.10;;;1.55;;
50225;SDS011;36113;50.742;6.432;2022-10-16T04:34:54;1.63;;;1.52;;
50225;SDS011;36113;50.742;6.432;2022-10-16T04:37:22;1.55;;;1.45;;
50225;SDS011;36113;50.742;6.432;2022-10-16T04:39:49;1.80;;;1.65;;
50225;SDS011;36113;50.742;6.432;2022-10-16T04:42:14;2.22;;;2.13;;
50225;SDS011;36113;50.742;6.432;2022-10-16T04:44:39;2.28;;;2.17;;
50225;SDS011;36113;50.742;6.432;2022-10-16T04:47:05;2.33;;;2.22;;
50225;SDS011;36113;50.742;6.432;2022-10-16T04:49:30;2.15;;;2.05;;
50225;SDS011;36113;50.742;6.432;2022-10-16T04:51:55;2.30;;;1.90;;
50225;SDS011;36113;50.742;6.432;2022-10-16T04:54:21;2.25;;;1.83;;
50225;SDS011;36113;50.742;6.432;2022-10-16T04:56:46;3.60;;;1.80;;
50225;SDS011;36113;50.742;6.432;2022-10-16T04:59:13;1.90;;;1.80;;
50225;SDS011;36113;50.742;6.432;2022-10-16T05:01:40;1.80;;;1.70;;
50225;SDS011;36113;50.742;6.432;2022-10-16T05:04:05;1.75;;;1.65;;
50225;SDS011;36113;50.742;6.432;2022-10-16T05:06:31;1.60;;;1.50;;
50225;SDS011;36113;50.742;6.432;2022-10-16T05:08:56;1.73;;;1.60;;
50225;SDS011;36113;50.742;6.432;2022-10-16T05:11:21;1.77;;;1.67;;
50225;SDS011;36113;50.742;6.432;2022-10-16T05:13:46;2.05;;;1.80;;
50225;SDS011;36113;50.742;6.432;2022-10-16T05:16:12;1.85;;;1.75;;
50225;SDS011;36113;50.742;6.432;2022-10-16T05:18:37;2.72;;;1.85;;
50225;SDS011;36113;50.742;6.432;2022-10-16T05:21:02;2.35;;;2.15;;
50225;SDS011;36113;50.742;6.432;2022-10-16T05:23:28;1.98;;;1.50;;
50225;SDS011;36113;50.742;6.432;2022-10-16T05:25:54;2.25;;;2.15;;
50225;SDS011;36113;50.742;6.432;2022-10-16T05:28:23;1.80;;;1.70;;
50225;SDS011;36113;50.742;6.432;2022-10-16T05:30:50;1.70;;;1.60;;
50225;SDS011;36113;50.742;6.432;2022-10-16T05:33:16;6.03;;;1.90;;
50225;SDS011;36113;50.742;6.432;2022-10-16T05:35:41;1.83;;;1.73;;
50225;SDS011;36113;50.742;6.432;2022-10-16T05:38:06;1.55;;;1.55;;
50225;SDS011;36113;50.742;6.432;2022-10-16T05:40:32;1.60;;;1.55;;
50225;SDS011;36113;50.742;6.432;2022-10-16T05:42:57;4.40;;;1.70;;
50225;SDS011;36113;50.742;6.432;2022-10-16T05:45:22;1.98;;;1.88;;
50225;SDS011;36113;50.742;6.432;2022-10-16T05:47:48;1.67;;;1.33;;
50225;SDS011;36113;50.742;6.432;2022-10-16T05:50:16;4.97;;;1.70;;
50225;SDS011;36113;50.742;6.432;2022-10-16T05:52:41;1.70;;;1.70;;
50225;SDS011;36113;50.742;6.432;2022-10-16T05:55:07;2.08;;;1.98;;
50225;SDS011;36113;50.742;6.432;2022-10-16T05:57:32;1.60;;;1.60;;
50225;SDS011;36113;50.742;6.432;2022-10-16T05:59:58;1.90;;;1.80;;
50225;SDS011;36113;50.742;6.432;2022-10-16T06:02:23;1.60;;;1.60;;
50225;SDS011;36113;50.742;6.432;2022-10-16T06:04:48;1.55;;;1.52;;
50225;SDS011;36113;50.742;6.432;2022-10-16T06:07:14;1.70;;;1.60;;
50225;SDS011;36113;50.742;6.432;2022-10-16T06:09:39;1.90;;;1.73;;
50225;SDS011;36113;50.742;6.432;2022-10-16T06:12:04;1.83;;;1.50;;
50225;SDS011;36113;50.742;6.432;2022-10-16T06:14:30;1.73;;;1.63;;
50225;SDS011;36113;50.742;6.432;2022-10-16T06:16:55;1.40;;;1.30;;
50225;SDS011;36113;50.742;6.432;2022-10-16T06:19:20;1.77;;;1.70;;
50225;SDS011;36113;50.742;6.432;2022-10-16T06:21:46;1.75;;;1.65;;
50225;SDS011;36113;50.742;6.432;2022-10-16T06:24:11;1.52;;;1.42;;
50225;SDS011;36113;50.742;6.432;2022-10-16T06:26:37;1.50;;;1.40;;
50225;SDS011;36113;50.742;6.432;2022-10-16T06:29:03;2.30;;;1.80;;
50225;SDS011;36113;50.742;6.432;2022-10-16T06:31:29;3.33;;;1.50;;
50225;SDS011;36113;50.742;6.432;2022-10-16T06:36:22;1.13;;;1.10;;
50225;SDS011;36113;50.742;6.432;2022-10-16T06:38:48;1.92;;;1.50;;
50225;SDS011;36113;50.742;6.432;2022-10-16T06:41:15;1.25;;;1.13;;
50225;SDS011;36113;50.742;6.432;2022-10-16T06:43:42;1.27;;;1.27;;
50225;SDS011;36113;50.742;6.432;2022-10-16T06:46:10;1.20;;;1.20;;
50225;SDS011;36113;50.742;6.432;2022-10-16T06:48:37;2.40;;;1.42;;
50225;SDS011;36113;50.742;6.432;2022-10-16T06:51:04;0.90;;;0.90;;
50225;SDS011;36113;50.742;6.432;2022-10-16T06:55:56;2.17;;;1.00;;
50225;SDS011;36113;50.742;6.432;2022-10-16T06:58:22;2.15;;;1.20;;
50225;SDS011;36113;50.742;6.432;2022-10-16T07:00:48;1.20;;;1.20;;
50225;SDS011;36113;50.742;6.432;2022-10-16T07:03:14;1.00;;;1.00;;
50225;SDS011;36113;50.742;6.432;2022-10-16T07:05:40;3.22;;;0.80;;
50225;SDS011;36113;50.742;6.432;2022-10-16T07:08:06;1.42;;;0.82;;
50225;SDS011;36113;50.742;6.432;2022-10-16T07:10:32;8.13;;;0.80;;
50225;SDS011;36113;50.742;6.432;2022-10-16T07:12:58;3.17;;;0.97;;
50225;SDS011;36113;50.742;6.432;2022-10-16T07:15:24;0.68;;;0.68;;
50225;SDS011;36113;50.742;6.432;2022-10-16T07:20:15;1.20;;;0.85;;
50225;SDS011;36113;50.742;6.432;2022-10-16T07:22:40;0.80;;;0.80;;
50225;SDS011;36113;50.742;6.432;2022-10-16T07:25:06;1.90;;;0.90;;
50225;SDS011;36113;50.742;6.432;2022-10-16T07:27:32;1.63;;;0.70;;
50225;SDS011;36113;50.742;6.432;2022-10-16T07:29:57;0.70;;;0.70;;
50225;SDS011;36113;50.742;6.432;2022-10-16T07:32:22;0.70;;;0.70;;
50225;SDS011;36113;50.742;6.432;2022-10-16T07:34:48;1.53;;;0.70;;
50225;SDS011;36113;50.742;6.432;2022-10-16T07:37:14;2.67;;;0.90;;
50225;SDS011;36113;50.742;6.432;2022-10-16T07:39:39;0.70;;;0.70;;
50225;SDS011;36113;50.742;6.432;2022-10-16T07:42:04;3.78;;;0.80;;
50225;SDS011;36113;50.742;6.432;2022-10-16T07:44:30;3.42;;;0.70;;
50225;SDS011;36113;50.742;6.432;2022-10-16T07:46:55;2.38;;;0.73;;
50225;SDS011;36113;50.742;6.432;2022-10-16T07:49:20;1.30;;;1.20;;
50225;SDS011;36113;50.742;6.432;2022-10-16T07:51:46;1.38;;;0.70;;
50225;SDS011;36113;50.742;6.432;2022-10-16T07:54:11;1.60;;;0.50;;
50225;SDS011;36113;50.742;6.432;2022-10-16T07:56:36;0.82;;;0.82;;
50225;SDS011;36113;50.742;6.432;2022-10-16T07:59:02;1.92;;;0.80;;
50225;SDS011;36113;50.742;6.432;2022-10-16T08:01:27;0.70;;;0.70;;
50225;SDS011;36113;50.742;6.432;2022-10-16T08:03:52;0.98;;;0.98;;
50225;SDS011;36113;50.742;6.432;2022-10-16T08:06:19;3.23;;;0.80;;
50225;SDS011;36113;50.742;6.432;2022-10-16T08:08:45;1.70;;;0.80;;
50225;SDS011;36113;50.742;6.432;2022-10-16T08:11:12;0.80;;;0.80;;
50225;SDS011;36113;50.742;6.432;2022-10-16T08:13:39;0.95;;;0.93;;
50225;SDS011;36113;50.742;6.432;2022-10-16T08:16:04;1.63;;;0.80;;
50225;SDS011;36113;50.742;6.432;2022-10-16T08:18:37;1.13;;;0.80;;
50225;SDS011;36113;50.742;6.432;2022-10-16T08:21:03;1.35;;;0.52;;
50225;SDS011;36113;50.742;6.432;2022-10-16T08:23:30;1.95;;;0.57;;
50225;SDS011;36113;50.742;6.432;2022-10-16T08:25:56;2.83;;;0.70;;
50225;SDS011;36113;50.742;6.432;2022-10-16T08:28:26;1.85;;;0.70;;
50225;SDS011;36113;50.742;6.432;2022-10-16T08:30:52;0.88;;;0.50;;
50225;SDS011;36113;50.742;6.432;2022-10-16T08:33:17;0.77;;;0.77;;
50225;SDS011;36113;50.742;6.432;2022-10-16T08:35:42;2.27;;;0.80;;
50225;SDS011;36113;50.742;6.432;2022-10-16T08:38:08;7.50;;;0.70;;
50225;SDS011;36113;50.742;6.432;2022-10-16T08:40:34;1.40;;;0.53;;
50225;SDS011;36113;50.742;6.432;2022-10-16T08:43:12;4.50;;;0.60;;
50225;SDS011;36113;50.742;6.432;2022-10-16T08:51:18;2.03;;;0.90;;
50225;SDS011;36113;50.742;6.432;2022-10-16T08:56:41;0.80;;;0.60;;
50225;SDS011;36113;50.742;6.432;2022-10-16T08:59:06;1.03;;;0.60;;
50225;SDS011;36113;50.742;6.432;2022-10-16T09:01:43;0.50;;;0.50;;
50225;SDS011;36113;50.742;6.432;2022-10-16T09:04:20;1.58;;;0.95;;
50225;SDS011;36113;50.742;6.432;2022-10-16T09:07:00;0.68;;;0.45;;
50225;SDS011;36113;50.742;6.432;2022-10-16T09:09:36;1.60;;;0.60;;
50225;SDS011;36113;50.742;6.432;2022-10-16T09:23:16;0.95;;;0.50;;
50225;SDS011;36113;50.742;6.432;2022-10-16T09:25:49;0.73;;;0.70;;
50225;SDS011;36113;50.742;6.432;2022-10-16T09:28:16;0.57;;;0.27;;
50225;SDS011;36113;50.742;6.432;2022-10-16T09:30:43;1.33;;;0.43;;
50225;SDS011;36113;50.742;6.432;2022-10-16T09:33:09;0.50;;;0.50;;
50225;SDS011;36113;50.742;6.432;2022-10-16T09:35:40;2.15;;;0.57;;
50225;SDS011;36113;50.742;6.432;2022-10-16T09:38:09;0.32;;;0.30;;
50225;SDS011;36113;50.742;6.432;2022-10-16T09:40:46;2.05;;;0.50;;
50225;SDS011;36113;50.742;6.432;2022-10-16T09:46:27;0.82;;;0.63;;
50225;SDS011;36113;50.742;6.432;2022-10-16T09:48:59;1.75;;;0.70;;
50225;SDS011;36113;50.742;6.432;2022-10-16T09:54:00;4.32;;;0.90;;
50225;SDS011;36113;50.742;6.432;2022-10-16T09:56:46;0.77;;;0.45;;
50225;SDS011;36113;50.742;6.432;2022-10-16T09:59:17;0.88;;;0.57;;
50225;SDS011;36113;50.742;6.432;2022-10-16T10:01:46;1.33;;;0.45;;
50225;SDS011;36113;50.742;6.432;2022-10-16T10:04:13;0.25;;;0.20;;
50225;SDS011;36113;50.742;6.432;2022-10-16T10:06:48;3.90;;;0.50;;
50225;SDS011;36113;50.742;6.432;2022-10-16T10:09:30;1.63;;;0.40;;
50225;SDS011;36113;50.742;6.432;2022-10-16T10:12:02;0.80;;;0.43;;
50225;SDS011;36113;50.742;6.432;2022-10-16T10:14:34;0.88;;;0.40;;
50225;SDS011;36113;50.742;6.432;2022-10-16T10:22:21;0.47;;;0.30;;
50225;SDS011;36113;50.742;6.432;2022-10-16T10:33:41;5.35;;;0.55;;
50225;SDS011;36113;50.742;6.432;2022-10-16T10:42:05;0.98;;;0.35;;
50225;SDS011;36113;50.742;6.432;2022-10-16T10:50:20;1.65;;;0.52;;
50225;SDS011;36113;50.742;6.432;2022-10-16T10:52:53;0.82;;;0.57;;
50225;SDS011;36113;50.742;6.432;2022-10-16T10:55:37;0.52;;;0.52;;
50225;SDS011;36113;50.742;6.432;2022-10-16T11:01:41;0.40;;;0.38;;
50225;SDS011;36113;50.742;6.432;2022-10-16T11:04:21;2.15;;;0.30;;
50225;SDS011;36113;50.742;6.432;2022-10-16T11:06:58;0.25;;;0.22;;
50225;SDS011;36113;50.742;6.432;2022-10-16T11:09:28;0.40;;;0.40;;
50225;SDS011;36113;50.742;6.432;2022-10-16T11:12:00;2.15;;;0.38;;
50225;SDS011;36113;50.742;6.432;2022-10-16T11:19:54;1.48;;;0.60;;
50225;SDS011;36113;50.742;6.432;2022-10-16T11:25:28;0.80;;;0.50;;
50225;SDS011;36113;50.742;6.432;2022-10-16T11:27:56;1.52;;;0.40;;
50225;SDS011;36113;50.742;6.432;2022-10-16T11:30:31;1.35;;;0.30;;
50225;SDS011;36113;50.742;6.432;2022-10-16T11:38:41;2.53;;;0.50;;
50225;SDS011;36113;50.742;6.432;2022-10-16T11:44:06;2.45;;;0.80;;
50225;SDS011;36113;50.742;6.432;2022-10-16T11:50:02;1.27;;;0.50;;
50225;SDS011;36113;50.742;6.432;2022-10-16T11:52:52;0.57;;;0.40;;
50225;SDS011;36113;50.742;6.432;2022-10-16T11:55:39;0.20;;;0.20;;
50225;SDS011;36113;50.742;6.432;2022-10-16T11:58:07;1.55;;;0.47;;
50225;SDS011;36113;50.742;6.432;2022-10-16T12:00:47;0.63;;;0.50;;
50225;SDS011;36113;50.742;6.432;2022-10-16T12:06:32;2.25;;;0.40;;
50225;SDS011;36113;50.742;6.432;2022-10-16T12:09:02;1.30;;;0.30;;
50225;SDS011;36113;50.742;6.432;2022-10-16T12:16:58;3.83;;;0.63;;
50225;SDS011;36113;50.742;6.432;2022-10-16T12:21:51;0.50;;;0.50;;
50225;SDS011;36113;50.742;6.432;2022-10-16T12:27:06;0.93;;;0.85;;
50225;SDS011;36113;50.742;6.432;2022-10-16T12:29:49;2.30;;;0.60;;
50225;SDS011;36113;50.742;6.432;2022-10-16T12:32:39;1.80;;;0.50;;
50225;SDS011;36113;50.742;6.432;2022-10-16T12:35:05;0.55;;;0.55;;
50225;SDS011;36113;50.742;6.432;2022-10-16T12:37:42;0.30;;;0.30;;
50225;SDS011;36113;50.742;6.432;2022-10-16T12:40:13;0.68;;;0.50;;
50225;SDS011;36113;50.742;6.432;2022-10-16T12:42:41;1.80;;;0.65;;
50225;SDS011;36113;50.742;6.432;2022-10-16T12:45:40;0.70;;;0.70;;
50225;SDS011;36113;50.742;6.432;2022-10-16T12:48:00;0.65;;;0.57;;
50225;SDS011;36113;50.742;6.432;2022-10-16T12:50:34;2.70;;;1.20;;
50225;SDS011;36113;50.742;6.432;2022-10-16T12:53:02;0.77;;;0.65;;
50225;SDS011;36113;50.742;6.432;2022-10-16T12:55:43;0.75;;;0.75;;
50225;SDS011;36113;50.742;6.432;2022-10-16T12:58:36;1.30;;;0.50;;
50225;SDS011;36113;50.742;6.432;2022-10-16T13:01:34;0.60;;;0.60;;
50225;SDS011;36113;50.742;6.432;2022-10-16T13:04:35;1.25;;;0.60;;
50225;SDS011;36113;50.742;6.432;2022-10-16T13:07:26;0.50;;;0.50;;
50225;SDS011;36113;50.742;6.432;2022-10-16T13:10:10;0.50;;;0.50;;
50225;SDS011;36113;50.742;6.432;2022-10-16T13:12:49;1.70;;;0.60;;
50225;SDS011;36113;50.742;6.432;2022-10-16T13:15:40;0.52;;;0.40;;
50225;SDS011;36113;50.742;6.432;2022-10-16T13:18:19;0.75;;;0.50;;
50225;SDS011;36113;50.742;6.432;2022-10-16T13:23:32;0.90;;;0.52;;
50225;SDS011;36113;50.742;6.432;2022-10-16T13:26:16;1.30;;;0.45;;
50225;SDS011;36113;50.742;6.432;2022-10-16T13:28:51;0.75;;;0.40;;
50225;SDS011;36113;50.742;6.432;2022-10-16T13:31:18;0.67;;;0.30;;
50225;SDS011;36113;50.742;6.432;2022-10-16T13:33:47;0.93;;;0.60;;
50225;SDS011;36113;50.742;6.432;2022-10-16T13:36:21;1.88;;;0.60;;
50225;SDS011;36113;50.742;6.432;2022-10-16T13:38:49;0.43;;;0.43;;
50225;SDS011;36113;50.742;6.432;2022-10-16T13:41:25;0.90;;;0.50;;
50225;SDS011;36113;50.742;6.432;2022-10-16T13:43:51;1.83;;;0.40;;
50225;SDS011;36113;50.742;6.432;2022-10-16T13:46:21;1.13;;;0.60;;
50225;SDS011;36113;50.742;6.432;2022-10-16T13:48:57;0.40;;;0.40;;
50225;SDS011;36113;50.742;6.432;2022-10-16T13:51:26;3.42;;;1.13;;
50225;SDS011;36113;50.742;6.432;2022-10-16T13:53:51;0.77;;;0.50;;
50225;SDS011;36113;50.742;6.432;2022-10-16T13:56:21;2.90;;;0.50;;
50225;SDS011;36113;50.742;6.432;2022-10-16T13:59:01;0.75;;;0.50;;
50225;SDS011;36113;50.742;6.432;2022-10-16T14:04:14;2.90;;;1.05;;
50225;SDS011;36113;50.742;6.432;2022-10-16T14:06:41;0.50;;;0.40;;
50225;SDS011;36113;50.742;6.432;2022-10-16T14:09:27;0.43;;;0.35;;
50225;SDS011;36113;50.742;6.432;2022-10-16T14:11:56;1.80;;;0.40;;
50225;SDS011;36113;50.742;6.432;2022-10-16T14:14:22;0.52;;;0.50;;
50225;SDS011;36113;50.742;6.432;2022-10-16T14:16:48;0.57;;;0.50;;
50225;SDS011;36113;50.742;6.432;2022-10-16T14:21:42;0.43;;;0.30;;
50225;SDS011;36113;50.742;6.432;2022-10-16T14:24:11;0.83;;;0.50;;
50225;SDS011;36113;50.742;6.432;2022-10-16T14:26:44;0.40;;;0.40;;
50225;SDS011;36113;50.742;6.432;2022-10-16T14:29:11;0.40;;;0.40;;
50225;SDS011;36113;50.742;6.432;2022-10-16T14:31:42;0.45;;;0.30;;
50225;SDS011;36113;50.742;6.432;2022-10-16T14:37:23;0.45;;;0.45;;
50225;SDS011;36113;50.742;6.432;2022-10-16T14:39:50;0.55;;;0.50;;
50225;SDS011;36113;50.742;6.432;2022-10-16T14:44:44;0.30;;;0.30;;
50225;SDS011;36113;50.742;6.432;2022-10-16T14:47:13;0.73;;;0.40;;
50225;SDS011;36113;50.742;6.432;2022-10-16T14:49:41;3.28;;;0.40;;
50225;SDS011;36113;50.742;6.432;2022-10-16T14:52:10;0.80;;;0.50;;
50225;SDS011;36113;50.742;6.432;2022-10-16T14:54:36;2.92;;;0.88;;
50225;SDS011;36113;50.742;6.432;2022-10-16T14:57:02;0.67;;;0.53;;
50225;SDS011;36113;50.742;6.432;2022-10-16T14:59:28;0.40;;;0.40;;
50225;SDS011;36113;50.742;6.432;2022-10-16T15:01:58;0.55;;;0.40;;
50225;SDS011;36113;50.742;6.432;2022-10-16T15:04:25;0.57;;;0.30;;
50225;SDS011;36113;50.742;6.432;2022-10-16T15:06:51;0.30;;;0.30;;
50225;SDS011;36113;50.742;6.432;2022-10-16T15:09:16;4.03;;;0.30;;
50225;SDS011;36113;50.742;6.432;2022-10-16T15:11:41;0.30;;;0.30;;
50225;SDS011;36113;50.742;6.432;2022-10-16T15:14:10;0.80;;;0.40;;
50225;SDS011;36113;50.742;6.432;2022-10-16T15:16:37;0.63;;;0.30;;
50225;SDS011;36113;50.742;6.432;2022-10-16T15:19:02;0.50;;;0.50;;
50225;SDS011;36113;50.742;6.432;2022-10-16T15:21:28;0.30;;;0.30;;
50225;SDS011;36113;50.742;6.432;2022-10-16T15:23:56;2.20;;;0.50;;
50225;SDS011;36113;50.742;6.432;2022-10-16T15:26:23;0.40;;;0.40;;
50225;SDS011;36113;50.742;6.432;2022-10-16T15:28:49;0.40;;;0.40;;
50225;SDS011;36113;50.742;6.432;2022-10-16T15:31:14;0.50;;;0.50;;
50225;SDS011;36113;50.742;6.432;2022-10-16T15:33:39;0.50;;;0.50;;
50225;SDS011;36113;50.742;6.432;2022-10-16T15:36:05;2.30;;;0.70;;
50225;SDS011;36113;50.742;6.432;2022-10-16T15:38:31;5.97;;;1.00;;
50225;SDS011;36113;50.742;6.432;2022-10-16T15:40:56;0.60;;;0.60;;
50225;SDS011;36113;50.742;6.432;2022-10-16T15:43:22;0.70;;;0.70;;
50225;SDS011;36113;50.742;6.432;2022-10-16T15:45:57;1.73;;;0.87;;
50225;SDS011;36113;50.742;6.432;2022-10-16T15:48:28;1.40;;;1.30;;
50225;SDS011;36113;50.742;6.432;2022-10-16T15:50:54;4.47;;;1.60;;
50225;SDS011;36113;50.742;6.432;2022-10-16T15:53:19;3.07;;;1.97;;
50225;SDS011;36113;50.742;6.432;2022-10-16T15:55:45;2.37;;;2.07;;
50225;SDS011;36113;50.742;6.432;2022-10-16T15:58:10;1.83;;;1.50;;
50225;SDS011;36113;50.742;6.432;2022-10-16T16:00:35;1.43;;;1.30;;
50225;SDS011;36113;50.742;6.432;2022-10-16T16:03:00;1.17;;;1.07;;
50225;SDS011;36113;50.742;6.432;2022-10-16T16:05:26;0.93;;;0.93;;
50225;SDS011;36113;50.742;6.432;2022-10-16T16:07:52;1.02;;;0.90;;
50225;SDS011;36113;50.742;6.432;2022-10-16T16:10:18;1.03;;;0.97;;
50225;SDS011;36113;50.742;6.432;2022-10-16T16:12:46;1.00;;;0.93;;
50225;SDS011;36113;50.742;6.432;2022-10-16T16:15:16;1.67;;;1.20;;
50225;SDS011;36113;50.742;6.432;2022-10-16T16:17:41;2.10;;;1.37;;
50225;SDS011;36113;50.742;6.432;2022-10-16T16:20:07;2.00;;;1.17;;
50225;SDS011;36113;50.742;6.432;2022-10-16T16:22:33;1.53;;;0.90;;
50225;SDS011;36113;50.742;6.432;2022-10-16T16:24:58;2.00;;;0.83;;
50225;SDS011;36113;50.742;6.432;2022-10-16T16:27:23;3.40;;;0.90;;
50225;SDS011;36113;50.742;6.432;2022-10-16T16:29:49;1.75;;;0.90;;
50225;SDS011;36113;50.742;6.432;2022-10-16T16:32:15;2.27;;;1.70;;
50225;SDS011;36113;50.742;6.432;2022-10-16T16:34:40;1.40;;;0.70;;
50225;SDS011;36113;50.742;6.432;2022-10-16T16:37:05;2.47;;;1.10;;
50225;SDS011;36113;50.742;6.432;2022-10-16T16:39:31;2.33;;;0.80;;
50225;SDS011;36113;50.742;6.432;2022-10-16T16:41:56;0.93;;;0.93;;
50225;SDS011;36113;50.742;6.432;2022-10-16T16:44:23;0.75;;;0.75;;
50225;SDS011;36113;50.742;6.432;2022-10-16T16:46:49;1.13;;;1.10;;
50225;SDS011;36113;50.742;6.432;2022-10-16T16:49:14;2.23;;;0.93;;
50225;SDS011;36113;50.742;6.432;2022-10-16T16:51:40;0.97;;;0.97;;
50225;SDS011;36113;50.742;6.432;2022-10-16T16:54:06;0.80;;;0.80;;
50225;SDS011;36113;50.742;6.432;2022-10-16T16:56:32;1.50;;;1.40;;